Time;durP1;ratioP1;P1;durP2;ratioP2;P2;SDS_P1;SDS_P2;PMS_P1;PMS_P2;Temp;Humidity;BMP_temperature;BMP_pressure;BME280_temperature;BME280_humidity;BME280_pressure;Samples;Min_cycle;Max_cycle;Signal;HPM_P1;HPM_P2
2021/07/23 00:01:02;;;;;;;14.20;8.27;;;;;;;17.14;80.30;99127.44;5058665;28;20045;-77
2021/07/23 00:03:29;;;;;;;12.55;8.40;;;;;;;17.13;79.65;99113.94;5054163;28;20602;-77
2021/07/23 00:05:57;;;;;;;13.48;9.00;;;;;;;17.13;79.67;99120.28;5054263;28;20528;-77
2021/07/23 00:08:24;;;;;;;15.60;8.45;;;;;;;16.94;80.23;99124.91;5060242;28;20122;-78
2021/07/23 00:10:52;;;;;;;12.10;8.63;;;;;;;17.07;79.89;99123.94;5068685;28;20442;-77
2021/07/23 00:13:18;;;;;;;16.83;8.57;;;;;;;16.96;80.12;99117.28;5054417;28;20049;-77
2021/07/23 00:15:45;;;;;;;11.98;8.05;;;;;;;17.10;79.18;99126.22;5053733;28;20460;-77
2021/07/23 00:18:12;;;;;;;12.15;8.30;;;;;;;17.13;79.65;99127.66;5068533;28;20044;-77
2021/07/23 00:20:39;;;;;;;13.30;8.15;;;;;;;16.85;80.42;99117.19;5058980;28;20523;-77
2021/07/23 00:23:06;;;;;;;12.77;8.88;;;;;;;16.87;80.36;99120.56;5056448;28;20061;-78
2021/07/23 00:25:32;;;;;;;12.32;8.77;;;;;;;16.90;80.00;99122.84;5062047;28;20048;-77
2021/07/23 00:28:00;;;;;;;12.73;8.90;;;;;;;16.76;80.86;99117.47;5064465;28;20064;-77
2021/07/23 00:30:28;;;;;;;14.65;9.13;;;;;;;16.64;80.46;99111.88;5070678;28;20613;-77
2021/07/23 00:32:54;;;;;;;14.18;9.43;;;;;;;16.60;80.91;99118.03;5053735;28;20045;-77
2021/07/23 00:35:21;;;;;;;12.30;8.70;;;;;;;16.79;80.51;99129.91;5069222;28;20343;-78
2021/07/23 00:37:48;;;;;;;15.00;8.45;;;;;;;16.47;81.86;99099.81;5057044;28;20416;-77
2021/07/23 00:40:15;;;;;;;15.50;8.45;;;;;;;16.45;81.59;99097.28;5053465;28;20102;-77
2021/07/23 00:42:43;;;;;;;14.70;8.88;;;;;;;16.32;81.94;99102.03;5061910;28;20057;-78
2021/07/23 00:45:13;;;;;;;15.60;7.90;;;;;;;16.37;81.61;99103.03;5061508;28;20052;-77
2021/07/23 00:47:44;;;;;;;13.38;8.52;;;;;;;16.14;82.73;99105.56;5057328;28;20045;-77
2021/07/23 00:50:11;;;;;;;13.65;7.88;;;;;;;16.09;83.33;99107.06;5058387;28;20049;-77
2021/07/23 00:52:39;;;;;;;14.25;8.77;;;;;;;16.06;84.14;99098.44;5065517;28;20071;-77
2021/07/23 00:55:07;;;;;;;15.98;8.60;;;;;;;16.34;82.78;99127.34;5063385;28;20122;-77
2021/07/23 00:57:37;;;;;;;13.52;8.20;;;;;;;16.16;83.11;99128.13;5053011;28;20060;-77
2021/07/23 01:00:05;;;;;;;;;;;;;;;15.95;83.81;99127.41;5054650;28;20127;-77
2021/07/23 01:02:33;;;;;;;12.05;8.02;;;;;;;15.94;83.53;99112.00;5057641;28;20326;-77
2021/07/23 01:05:03;;;;;;;14.35;8.75;;;;;;;16.05;82.96;99110.50;5071079;28;20053;-77
2021/07/23 01:07:30;;;;;;;18.80;8.88;;;;;;;15.95;83.33;99104.66;5060268;28;20060;-77
2021/07/23 01:10:05;;;;;;;12.60;7.70;;;;;;;15.66;84.33;99118.69;5060107;28;20135;-77
2021/07/23 01:12:34;;;;;;;13.23;8.65;;;;;;;15.57;84.22;99095.38;5058908;28;20498;-77
2021/07/23 01:15:03;;;;;;;15.05;8.73;;;;;;;15.49;84.78;99099.19;5051081;28;20102;-77
2021/07/23 01:17:30;;;;;;;11.00;8.15;;;;;;;15.70;84.60;99117.22;5052567;28;20045;-77
2021/07/23 01:22:51;;;;;;;10.95;8.07;;;;;;;15.71;84.94;99131.75;5052468;28;20060;-77
2021/07/23 01:25:20;;;;;;;15.52;9.10;;;;;;;15.37;85.78;99100.91;5056200;28;20045;-77
2021/07/23 01:30:55;;;;;;;12.88;8.68;;;;;;;15.73;84.82;99111.28;5054983;28;20051;-77
2021/07/23 01:33:22;;;;;;;14.85;8.52;;;;;;;15.71;85.14;99107.91;5061305;28;20060;-78
2021/07/23 01:35:48;;;;;;;17.58;8.80;;;;;;;15.47;86.02;99108.69;5057525;28;20075;-77
2021/07/23 01:38:16;;;;;;;15.52;8.13;;;;;;;15.32;86.67;99101.56;5070279;28;20048;-77
2021/07/23 01:40:46;;;;;;;17.15;7.97;;;;;;;15.37;86.62;99111.88;5060965;28;20106;-77
2021/07/23 01:43:14;;;;;;;14.98;8.85;;;;;;;15.46;85.31;99093.31;5062503;28;20052;-77
2021/07/23 01:45:41;;;;;;;15.40;8.15;;;;;;;15.56;85.24;99110.13;5068417;28;20056;-77
2021/07/23 01:48:08;;;;;;;11.85;8.20;;;;;;;15.34;86.32;99101.34;5056535;28;20049;-77
2021/07/23 01:50:35;;;;;;;12.25;8.18;;;;;;;15.45;85.90;99105.34;5059003;28;20459;-77
2021/07/23 01:53:02;;;;;;;12.82;7.90;;;;;;;15.38;86.18;99097.13;5061185;28;20052;-77
2021/07/23 01:55:28;;;;;;;14.93;8.82;;;;;;;15.44;86.57;99103.66;5068421;28;20044;-77
2021/07/23 01:57:57;;;;;;;17.90;9.27;;;;;;;15.46;86.11;99088.69;5053188;28;20110;-77
2021/07/23 02:00:26;;;;;;;12.38;8.48;;;;;;;15.63;85.78;99108.19;5056765;28;20080;-77
2021/07/23 02:02:53;;;;;;;9.82;7.82;;;;;;;15.70;85.37;99111.72;5062382;28;20097;-77
2021/07/23 02:05:20;;;;;;;15.45;7.88;;;;;;;15.37;85.33;99087.22;5056984;28;20045;-77
2021/07/23 02:07:47;;;;;;;18.90;9.00;;;;;;;15.30;86.03;99094.66;5052340;28;20289;-77
2021/07/23 02:10:14;;;;;;;12.02;8.52;;;;;;;15.09;86.46;99084.84;5057102;28;20041;-77
2021/07/23 02:12:40;;;;;;;18.58;8.13;;;;;;;15.17;86.03;99068.97;5052513;28;20041;-77
2021/07/23 02:15:09;;;;;;;13.60;7.80;;;;;;;15.32;85.84;99096.09;5061546;28;20056;-77
2021/07/23 02:17:36;;;;;;;15.98;8.18;;;;;;;15.13;85.81;99097.88;5063523;28;20428;-77
2021/07/23 02:20:04;;;;;;;12.77;8.38;;;;;;;15.21;85.39;99092.16;5061034;28;20095;-77
2021/07/23 02:22:30;;;;;;;13.40;8.77;;;;;;;15.09;85.17;99079.38;5056406;28;20041;-77
2021/07/23 02:24:57;;;;;;;13.23;8.55;;;;;;;15.16;85.31;99099.31;5071778;28;20056;-77
2021/07/23 02:27:24;;;;;;;11.00;7.70;;;;;;;15.15;85.02;99084.81;5066062;28;20044;-78
2021/07/23 02:29:51;;;;;;;14.40;8.77;;;;;;;14.92;85.81;99090.78;5071886;28;20052;-78
2021/07/23 02:32:19;;;;;;;12.50;8.15;;;;;;;14.92;85.67;99089.94;5069395;28;20389;-77
2021/07/23 02:34:46;;;;;;;10.07;7.50;;;;;;;14.67;86.53;99090.63;5069064;28;20044;-77
2021/07/23 02:37:12;;;;;;;13.63;8.10;;;;;;;14.73;86.38;99067.88;5062516;28;20439;-77
2021/07/23 02:39:39;;;;;;;14.23;7.80;;;;;;;14.76;86.34;99083.88;5054575;28;20053;-78
2021/07/23 02:42:06;;;;;;;13.23;8.55;;;;;;;14.75;86.13;99082.19;5051953;28;20454;-77
2021/07/23 02:44:33;;;;;;;11.55;7.53;;;;;;;14.71;86.50;99077.34;5059366;28;20496;-77
2021/07/23 02:47:00;;;;;;;13.98;7.88;;;;;;;14.71;86.06;99070.00;5051870;28;20045;-78
2021/07/23 02:49:28;;;;;;;13.32;8.32;;;;;;;14.75;85.79;99095.03;5063731;28;20115;-77
2021/07/23 02:51:54;;;;;;;16.92;8.20;;;;;;;14.71;86.56;99093.78;5052727;28;20098;-78
2021/07/23 02:54:21;;;;;;;17.17;8.27;;;;;;;14.49;86.03;99067.47;5065257;28;20105;-77
2021/07/23 02:56:48;;;;;;;14.98;8.35;;;;;;;14.45;86.16;99071.72;5074398;28;20052;-77
2021/07/23 02:59:15;;;;;;;18.25;8.20;;;;;;;14.42;86.23;99071.28;5065248;28;20052;-77
2021/07/23 03:01:41;;;;;;;13.02;8.10;;;;;;;14.38;87.31;99079.06;5057429;28;20519;-77
2021/07/23 03:04:08;;;;;;;12.50;8.43;;;;;;;14.36;88.23;99072.13;5055511;28;20057;-77
2021/07/23 03:06:36;;;;;;;14.82;8.30;;;;;;;14.42;88.12;99090.41;5064309;28;20542;-78
2021/07/23 03:09:03;;;;;;;14.68;8.90;;;;;;;14.26;88.06;99076.13;5062831;28;20493;-77
2021/07/23 03:11:30;;;;;;;11.68;8.15;;;;;;;14.26;88.11;99078.88;5061864;28;20287;-78
2021/07/23 03:13:58;;;;;;;13.38;8.68;;;;;;;14.36;87.40;99086.63;5064898;28;20099;-77
2021/07/23 03:16:25;;;;;;;11.93;7.57;;;;;;;14.18;87.62;99059.09;5066445;28;20041;-77
2021/07/23 03:18:52;;;;;;;12.93;8.32;;;;;;;14.21;87.70;99065.00;5058481;28;20060;-78
2021/07/23 03:21:21;;;;;;;11.35;8.20;;;;;;;14.32;88.09;99077.19;5062982;28;20048;-77
2021/07/23 03:23:49;;;;;;;19.70;8.17;;;;;;;14.18;87.90;99073.59;5066537;28;20492;-78
2021/07/23 03:26:16;;;;;;;11.63;8.60;;;;;;;14.11;87.38;99061.84;5058876;28;20810;-77
2021/07/23 03:28:43;;;;;;;11.38;8.15;;;;;;;14.12;87.69;99075.31;5059793;28;20057;-78
2021/07/23 03:31:12;;;;;;;14.13;8.38;;;;;;;14.37;87.20;99076.53;5073469;28;20131;-78
2021/07/23 03:33:38;;;;;;;15.38;8.60;;;;;;;14.16;87.40;99068.34;5055163;28;20500;-77
2021/07/23 03:36:05;;;;;;;16.85;8.48;;;;;;;13.98;88.03;99058.06;5054924;28;20091;-77
2021/07/23 03:38:32;;;;;;;13.32;8.48;;;;;;;14.00;88.21;99063.31;5060579;28;20061;-77
2021/07/23 03:41:00;;;;;;;14.70;8.20;;;;;;;14.05;88.05;99055.31;5056259;28;20322;-78
2021/07/23 03:43:27;;;;;;;13.40;8.57;;;;;;;14.11;88.03;99075.50;5071585;28;20068;-78
2021/07/23 03:45:54;;;;;;;14.15;8.38;;;;;;;14.02;88.65;99065.84;5070466;28;20052;-77
2021/07/23 03:48:20;;;;;;;15.65;8.07;;;;;;;14.03;88.96;99072.97;5073358;28;20048;-77
2021/07/23 03:50:48;;;;;;;13.57;8.13;;;;;;;14.04;88.33;99053.63;5072472;28;20253;-78
2021/07/23 03:53:15;;;;;;;14.55;8.32;;;;;;;14.08;88.39;99074.03;5070740;28;20056;-78
2021/07/23 03:55:42;;;;;;;13.98;8.55;;;;;;;14.01;87.88;99064.97;5069872;28;20463;-78
2021/07/23 03:58:11;;;;;;;13.27;7.93;;;;;;;14.05;87.04;99065.41;5060211;28;20040;-77
2021/07/23 04:00:37;;;;;;;13.02;8.57;;;;;;;14.16;86.89;99079.28;5064068;28;20511;-77
2021/07/23 04:03:04;;;;;;;14.02;8.27;;;;;;;14.24;86.63;99078.25;5057819;28;20431;-78
2021/07/23 04:05:31;;;;;;;12.50;8.10;;;;;;;13.91;87.06;99059.94;5058769;28;20048;-78
2021/07/23 04:07:58;;;;;;;13.90;8.27;;;;;;;14.11;86.76;99076.34;5067308;28;20110;-77
2021/07/23 04:10:26;;;;;;;16.25;8.90;;;;;;;13.98;87.67;99081.78;5070331;28;20098;-77
2021/07/23 04:12:52;;;;;;;11.70;7.45;;;;;;;14.05;87.29;99077.19;5061459;28;20059;-78
2021/07/23 04:15:21;;;;;;;12.20;7.63;;;;;;;13.98;87.57;99066.25;5056838;28;20126;-79
2021/07/23 04:17:47;;;;;;;13.23;8.18;;;;;;;14.02;87.60;99084.97;5055827;28;20053;-78
2021/07/23 04:20:15;;;;;;;13.90;7.63;;;;;;;14.02;87.87;99083.06;5073187;28;20090;-79
2021/07/23 04:22:42;;;;;;;13.02;8.73;;;;;;;14.02;88.05;99085.81;5073504;28;20545;-78
2021/07/23 04:25:10;;;;;;;13.70;8.23;;;;;;;14.12;87.72;99072.56;5067842;28;20055;-79
2021/07/23 04:27:37;;;;;;;11.40;7.43;;;;;;;13.96;88.61;99072.97;5073484;28;20056;-78
2021/07/23 04:30:04;;;;;;;11.85;7.63;;;;;;;13.90;89.11;99076.53;5060292;28;20489;-78
2021/07/23 04:32:33;;;;;;;11.88;7.85;;;;;;;14.03;89.00;99073.81;5053623;28;20049;-78
2021/07/23 04:35:00;;;;;;;16.05;9.55;;;;;;;14.01;89.05;99075.91;5052914;28;20107;-78
2021/07/23 04:37:26;;;;;;;14.00;8.32;;;;;;;14.09;88.76;99077.59;5053738;28;20049;-78
2021/07/23 04:39:53;;;;;;;16.27;9.85;;;;;;;14.24;88.20;99085.59;5053360;28;20049;-78
2021/07/23 04:42:20;;;;;;;13.15;8.35;;;;;;;14.29;88.40;99091.28;5053080;28;20049;-78
2021/07/23 04:44:46;;;;;;;12.02;8.10;;;;;;;14.44;88.04;99086.44;5051902;28;20096;-79
2021/07/23 04:47:13;;;;;;;13.68;7.57;;;;;;;14.18;89.37;99076.31;5053246;28;20053;-78
2021/07/23 04:49:41;;;;;;;13.23;8.38;;;;;;;14.37;88.98;99092.97;5053647;28;20057;-78
2021/07/23 04:52:08;;;;;;;12.80;8.32;;;;;;;14.49;88.50;99094.81;5053275;28;20156;-78
2021/07/23 04:54:35;;;;;;;13.27;8.13;;;;;;;14.63;88.30;99097.56;5063532;28;20438;-78
2021/07/23 04:57:01;;;;;;;12.68;7.88;;;;;;;14.79;87.23;99102.59;5063711;28;20053;-79
2021/07/23 04:59:31;;;;;;;14.32;7.78;;;;;;;14.72;87.72;99082.59;5065356;28;20086;-79
2021/07/23 05:01:58;;;;;;;14.90;8.05;;;;;;;14.72;88.09;99104.50;5059801;28;20557;-79
2021/07/23 05:04:25;;;;;;;13.07;7.85;;;;;;;14.76;87.97;99099.47;5063198;28;20049;-78
2021/07/23 05:06:53;;;;;;;12.23;8.65;;;;;;;14.90;88.08;99101.09;5056306;28;20044;-79
2021/07/23 05:09:19;;;;;;;12.70;8.52;;;;;;;15.03;87.74;99095.59;5062373;28;20045;-78
2021/07/23 05:11:47;;;;;;;12.25;8.07;;;;;;;14.94;88.55;99085.94;5056940;28;20106;-78
2021/07/23 05:14:16;;;;;;;14.13;8.20;;;;;;;15.10;88.84;99101.06;5058142;28;20044;-79
2021/07/23 05:16:43;;;;;;;13.45;9.15;;;;;;;15.37;87.55;99087.22;5054418;28;20102;-79
2021/07/23 05:19:15;;;;;;;13.43;8.55;;;;;;;15.73;84.07;99075.66;5054610;28;20053;-79
2021/07/23 05:21:45;;;;;;;17.98;9.05;;;;;;;16.17;82.34;99085.91;5054964;28;20139;-79
2021/07/23 05:24:13;;;;;;;;;;;;;;;16.27;81.58;99102.72;5054805;28;20045;-79
2021/07/23 05:26:40;;;;;;;15.88;8.35;;;;;;;16.48;81.20;99095.97;5054265;28;19978;-79
2021/07/23 05:29:09;;;;;;;15.27;8.13;;;;;;;16.67;80.09;99094.13;5061828;28;20045;-79
2021/07/23 05:31:39;;;;;;;11.75;8.48;;;;;;;16.85;80.04;99097.97;5057639;28;20131;-79
2021/07/23 05:34:06;;;;;;;13.13;8.27;;;;;;;17.04;78.65;99096.94;5062430;28;20419;-79
2021/07/23 05:36:32;;;;;;;15.63;9.50;;;;;;;17.06;78.71;99096.72;5067541;28;20052;-79
2021/07/23 05:38:59;;;;;;;11.20;8.95;;;;;;;17.22;78.59;99097.97;5060595;28;20044;-79
2021/07/23 05:41:27;;;;;;;13.05;7.82;;;;;;;17.02;79.87;99101.81;5060758;28;20110;-79
2021/07/23 05:43:54;;;;;;;18.77;9.13;;;;;;;17.06;79.72;99097.53;5054406;28;20076;-79
2021/07/23 05:46:20;;;;;;;13.65;7.68;;;;;;;17.24;81.19;99098.63;5072518;28;20473;-78
2021/07/23 05:48:47;;;;;;;12.98;8.75;;;;;;;17.41;79.73;99093.31;5057011;28;20059;-79
2021/07/23 05:51:14;;;;;;;14.80;8.77;;;;;;;17.62;79.02;99095.56;5053138;28;20049;-79
2021/07/23 05:53:43;;;;;;;14.43;8.00;;;;;;;17.63;78.50;99097.25;5050624;28;20098;-79
2021/07/23 05:56:10;;;;;;;13.60;8.90;;;;;;;17.76;78.40;99093.44;5056721;28;20453;-79
2021/07/23 05:58:38;;;;;;;18.27;8.45;;;;;;;17.87;77.91;99075.34;5062043;28;20040;-79
2021/07/23 06:01:06;;;;;;;15.98;8.73;;;;;;;18.28;76.86;99098.41;5067175;28;20045;-79
2021/07/23 06:03:34;;;;;;;15.95;8.40;;;;;;;18.67;74.38;99085.03;5061763;28;20119;-79
2021/07/23 06:06:01;;;;;;;15.98;9.15;;;;;;;19.23;70.84;99092.91;5066276;28;20438;-79
2021/07/23 06:08:28;;;;;;;15.93;9.63;;;;;;;19.47;69.79;99071.59;5052428;28;20048;-79
2021/07/23 06:10:55;;;;;;;12.30;8.57;;;;;;;19.50;70.34;99079.38;5061148;28;20140;-79
2021/07/23 06:13:21;;;;;;;14.60;9.65;;;;;;;20.00;68.92;99088.06;5051823;28;20049;-79
2021/07/23 06:15:49;;;;;;;15.55;9.05;;;;;;;19.99;68.63;99076.16;5065597;28;20554;-79
2021/07/23 06:18:16;;;;;;;18.50;9.60;;;;;;;20.29;68.57;99080.53;5052205;28;20484;-79
2021/07/23 06:20:43;;;;;;;21.10;10.18;;;;;;;20.38;68.42;99084.56;5058642;28;20049;-79
2021/07/23 06:23:10;;;;;;;21.63;10.02;;;;;;;20.48;68.27;99083.91;5067721;28;20055;-79
2021/07/23 06:25:36;;;;;;;14.13;9.68;;;;;;;20.24;68.45;99078.53;5058343;28;20053;-78
2021/07/23 06:28:04;;;;;;;19.70;9.73;;;;;;;20.36;68.64;99081.22;5057283;28;20048;-79
2021/07/23 06:30:31;;;;;;;18.73;10.70;;;;;;;20.44;67.24;99083.56;5067914;28;20041;-79
2021/07/23 06:32:59;;;;;;;35.40;11.77;;;;;;;20.79;66.51;99087.16;5057034;28;20036;-79
2021/07/23 06:35:29;;;;;;;20.90;10.48;;;;;;;21.17;65.94;99078.00;5062770;28;20048;-79
2021/07/23 06:37:58;;;;;;;15.70;9.48;;;;;;;21.55;63.92;99069.94;5065817;28;20059;-79
2021/07/23 06:40:25;;;;;;;22.48;10.50;;;;;;;21.44;65.07;99077.25;5064937;28;20128;-79
2021/07/23 06:42:52;;;;;;;16.20;11.05;;;;;;;21.51;65.69;99079.81;5052142;28;20102;-79
2021/07/23 06:45:18;;;;;;;20.73;10.15;;;;;;;21.32;63.63;99080.13;5054428;28;20109;-79
2021/07/23 06:47:46;;;;;;;18.10;9.68;;;;;;;21.86;63.17;99079.38;5063681;28;20105;-79
2021/07/23 06:50:14;;;;;;;16.25;8.55;;;;;;;22.31;61.65;99082.88;5072797;28;20044;-79
2021/07/23 06:52:42;;;;;;;19.27;9.15;;;;;;;22.22;61.74;99071.41;5054729;28;20415;-79
2021/07/23 06:55:10;;;;;;;15.35;9.82;;;;;;;22.40;61.12;99069.34;5051766;28;20041;-79
2021/07/23 06:57:36;;;;;;;17.90;10.48;;;;;;;22.46;61.13;99059.97;5055764;28;20052;-79
2021/07/23 07:00:04;;;;;;;23.88;10.27;;;;;;;22.75;60.31;99063.25;5065442;28;20056;-79
2021/07/23 07:02:31;;;;;;;18.70;9.70;;;;;;;22.56;60.28;99070.31;5071653;28;20045;-76
2021/07/23 07:04:58;;;;;;;25.55;9.65;;;;;;;22.40;61.37;99072.97;5070040;28;20516;-76
2021/07/23 07:07:26;;;;;;;28.65;10.25;;;;;;;22.69;60.36;99077.31;5068579;28;20483;-78
2021/07/23 07:09:53;;;;;;;20.52;9.35;;;;;;;22.73;60.32;99087.63;5052226;28;20041;-78
2021/07/23 07:12:19;;;;;;;21.70;11.00;;;;;;;22.78;60.95;99084.06;5051842;28;20102;-78
2021/07/23 07:14:46;;;;;;;23.98;10.50;;;;;;;23.03;59.45;99079.75;5051077;28;20056;-77
2021/07/23 07:17:13;;;;;;;21.73;10.07;;;;;;;22.97;59.40;99092.75;5056998;28;20108;-77
2021/07/23 07:19:40;;;;;;;29.05;10.43;;;;;;;23.60;58.76;99056.69;5051845;28;20076;-78
2021/07/23 07:22:06;;;;;;;23.83;9.95;;;;;;;23.40;58.43;99067.75;5060831;28;20102;-78
2021/07/23 07:24:34;;;;;;;24.63;11.18;;;;;;;23.74;57.66;99068.13;5070321;28;20041;-78
2021/07/23 07:27:01;;;;;;;24.88;9.32;;;;;;;23.36;57.52;99070.22;5059585;28;20091;-78
2021/07/23 07:29:28;;;;;;;29.48;10.10;;;;;;;23.36;58.66;99072.16;5051692;28;20187;-79
2021/07/23 07:31:55;;;;;;;29.40;9.95;;;;;;;23.54;58.18;99065.31;5059182;28;20045;-79
2021/07/23 07:34:22;;;;;;;21.63;10.05;;;;;;;23.81;56.00;99053.97;5069100;28;20450;-79
2021/07/23 07:36:48;;;;;;;28.13;9.77;;;;;;;23.91;56.88;99061.50;5057356;28;20041;-79
2021/07/23 07:39:15;;;;;;;20.90;9.05;;;;;;;24.33;55.45;99057.66;5053108;28;20401;-79
2021/07/23 07:41:43;;;;;;;22.75;9.90;;;;;;;24.54;54.20;99069.59;5072186;28;20424;-79
2021/07/23 07:44:10;;;;;;;22.38;9.85;;;;;;;24.13;54.53;99062.13;5059579;28;20496;-78
2021/07/23 07:46:37;;;;;;;20.65;9.65;;;;;;;24.36;53.75;99065.44;5055515;28;20041;-78
2021/07/23 07:49:03;;;;;;;23.70;9.45;;;;;;;24.37;54.20;99062.41;5059499;28;20045;-78
2021/07/23 07:51:30;;;;;;;13.82;8.43;;;;;;;24.58;53.52;99053.19;5073007;28;20487;-78
2021/07/23 07:53:57;;;;;;;18.13;9.43;;;;;;;24.14;54.00;99065.72;5072779;28;20048;-78
2021/07/23 07:56:24;;;;;;;24.95;10.05;;;;;;;24.09;54.01;99054.59;5055871;28;20488;-78
2021/07/23 07:58:52;;;;;;;18.55;8.80;;;;;;;24.41;53.56;99062.66;5054942;28;20048;-79
2021/07/23 08:01:18;;;;;;;17.05;9.63;;;;;;;24.22;53.57;99056.81;5060423;28;20053;-78
2021/07/23 08:03:45;;;;;;;16.40;9.65;;;;;;;24.32;53.42;99056.81;5058188;28;20117;-78
2021/07/23 08:06:20;;;;;;;15.13;9.10;;;;;;;24.60;52.64;99067.66;5057535;28;20053;-78
2021/07/23 08:08:47;;;;;;;21.02;9.05;;;;;;;24.53;53.62;99063.19;5055002;28;20055;-78
2021/07/23 08:11:14;;;;;;;22.20;9.10;;;;;;;24.37;53.23;99048.50;5063914;28;20513;-78
2021/07/23 08:13:40;;;;;;;18.85;8.88;;;;;;;24.59;54.26;99055.72;5071921;28;20071;-78
2021/07/23 08:16:10;;;;;;;17.20;9.52;;;;;;;24.68;51.79;99056.81;5057585;28;20467;-78
2021/07/23 08:18:37;;;;;;;15.00;8.77;;;;;;;24.81;52.38;99043.44;5072335;28;20052;-79
2021/07/23 08:21:04;;;;;;;25.70;9.52;;;;;;;25.13;50.65;99039.44;5054080;28;20059;-78
2021/07/23 08:23:32;;;;;;;17.48;8.20;;;;;;;25.19;51.89;99032.75;5067998;28;20048;-79
2021/07/23 08:25:59;;;;;;;14.18;8.43;;;;;;;25.25;51.08;99045.53;5074147;28;20047;-78
2021/07/23 08:28:26;;;;;;;17.02;8.50;;;;;;;25.41;51.44;99030.47;5055189;28;20071;-79
2021/07/23 08:30:53;;;;;;;17.17;8.90;;;;;;;25.31;52.20;99038.84;5054171;28;20053;-78
2021/07/23 08:33:23;;;;;;;15.48;8.73;;;;;;;25.52;53.52;99031.22;5060726;28;20128;-78
2021/07/23 08:35:50;;;;;;;22.08;7.93;;;;;;;25.21;51.72;99033.31;5056648;28;20073;-79
2021/07/23 08:38:17;;;;;;;17.10;8.52;;;;;;;25.40;51.25;99034.34;5068701;28;20545;-78
2021/07/23 08:40:44;;;;;;;19.92;9.35;;;;;;;25.29;51.21;99013.22;5061436;28;20515;-78
2021/07/23 08:43:11;;;;;;;17.73;8.32;;;;;;;25.54;49.67;99014.25;5062894;28;20102;-79
2021/07/23 08:45:39;;;;;;;15.43;9.15;;;;;;;25.72;49.40;99021.91;5057373;28;20044;-79
2021/07/23 08:48:07;;;;;;;22.15;8.85;;;;;;;25.75;49.66;99015.78;5056777;28;20131;-79
2021/07/23 08:50:35;;;;;;;25.48;8.73;;;;;;;25.94;49.68;99024.28;5068193;28;20106;-78
2021/07/23 08:53:09;;;;;;;20.60;8.38;;;;;;;26.06;49.85;99020.31;5062451;28;20534;-79
2021/07/23 08:55:36;;;;;;;17.55;8.48;;;;;;;25.75;49.48;99004.63;5054121;28;20056;-79
2021/07/23 08:58:06;;;;;;;14.40;8.13;;;;;;;25.62;49.95;99021.97;5054000;28;20056;-78
2021/07/23 09:00:33;;;;;;;13.82;7.97;;;;;;;25.68;50.16;99020.00;5053533;28;20110;-79
2021/07/23 09:03:01;;;;;;;19.48;8.32;;;;;;;25.94;49.54;99015.06;5060038;28;20450;-78
2021/07/23 09:05:29;;;;;;;20.23;9.10;;;;;;;26.03;48.79;99023.66;5072540;28;20048;-79
2021/07/23 09:08:01;;;;;;;21.45;8.82;;;;;;;25.82;50.07;99009.03;5066600;28;20127;-78
2021/07/23 09:10:29;;;;;;;16.75;8.50;;;;;;;25.69;51.27;99013.31;5059335;28;20591;-79
2021/07/23 09:12:59;;;;;;;22.40;9.40;;;;;;;25.73;48.89;99019.94;5053979;28;20170;-79
2021/07/23 09:15:28;;;;;;;12.35;8.10;;;;;;;26.03;48.10;99006.97;5058963;28;20049;-79
2021/07/23 09:17:55;;;;;;;14.27;7.80;;;;;;;26.16;49.14;99013.84;5058846;28;20049;-79
2021/07/23 09:20:25;;;;;;;18.70;9.18;;;;;;;26.31;47.29;98991.41;5060716;28;20509;-78
2021/07/23 09:22:53;;;;;;;18.58;8.98;;;;;;;26.07;48.29;99000.50;5057712;28;20354;-79
2021/07/23 09:25:43;;;;;;;21.52;7.88;;;;;;;26.05;49.03;99008.34;5063165;28;20045;-79
2021/07/23 09:28:24;;;;;;;15.15;7.72;;;;;;;26.28;48.32;98991.97;5053102;28;20079;-79
2021/07/23 09:30:51;;;;;;;16.73;8.10;;;;;;;26.38;46.69;99002.22;5052440;28;20048;-79
2021/07/23 09:33:34;;;;;;;18.35;7.40;;;;;;;26.18;47.35;99000.44;5052741;28;20547;-79
2021/07/23 09:36:03;;;;;;;13.43;7.85;;;;;;;26.01;47.60;98993.31;5052161;28;20052;-79
2021/07/23 09:39:18;;;;;;;14.02;7.45;;;;;;;26.10;46.80;98991.56;5052907;28;20045;-79
2021/07/23 09:42:01;;;;;;;12.15;7.25;;;;;;;26.06;45.88;98986.88;5048181;28;20048;-78
2021/07/23 09:44:28;;;;;;;16.50;7.13;;;;;;;26.11;46.12;98995.22;5064804;28;20044;-79
2021/07/23 09:46:54;;;;;;;17.85;7.90;;;;;;;26.00;47.18;98986.13;5070092;28;20048;-79
2021/07/23 09:49:22;;;;;;;12.63;7.97;;;;;;;26.43;45.03;98972.31;5056110;28;20040;-79
2021/07/23 09:51:49;;;;;;;12.85;7.88;;;;;;;26.09;46.26;98983.50;5053236;28;20493;-78
2021/07/23 09:54:19;;;;;;;16.45;8.40;;;;;;;26.38;44.51;98977.13;5062434;28;20066;-80
2021/07/23 09:56:49;;;;;;;11.85;6.97;;;;;;;26.98;47.20;98990.72;5067710;28;20099;-79
2021/07/23 09:59:16;;;;;;;;;;;;;;;27.41;45.59;98979.56;5061959;28;20045;-79
2021/07/23 10:01:45;;;;;;;14.43;8.27;;;;;;;26.92;43.38;98981.56;5061875;28;20372;-79
2021/07/23 10:04:24;;;;;;;13.68;7.90;;;;;;;27.09;45.22;98980.25;5063392;28;20037;-79
2021/07/23 10:07:00;;;;;;;9.05;6.40;;;;;;;27.12;40.67;98960.13;5071222;28;20053;-79
2021/07/23 10:09:30;;;;;;;9.55;6.50;;;;;;;27.07;41.82;98969.41;5055875;28;20044;-79
2021/07/23 10:12:00;;;;;;;11.27;6.97;;;;;;;27.28;42.15;98964.38;5065895;28;20114;-79
2021/07/23 10:14:28;;;;;;;;;;;;;;;27.12;40.80;98960.94;5052382;28;20073;-79
2021/07/23 10:16:55;;;;;;;12.35;6.60;;;;;;;27.16;41.32;98962.00;5051949;28;19971;-79
2021/07/23 10:19:23;;;;;;;10.52;7.10;;;;;;;27.32;41.48;98951.47;5052035;28;20092;-79
2021/07/23 10:21:50;;;;;;;10.15;7.10;;;;;;;27.54;42.40;98939.72;5056293;28;20496;-79
2021/07/23 10:24:18;;;;;;;9.68;6.38;;;;;;;27.96;40.24;98937.13;5054588;28;20045;-79
2021/07/23 10:26:46;;;;;;;10.30;6.82;;;;;;;28.05;39.55;98920.50;5051969;28;20079;-79
2021/07/23 10:29:14;;;;;;;11.13;6.50;;;;;;;27.83;39.61;98935.09;5064925;28;20447;-79
2021/07/23 10:31:47;;;;;;;11.10;6.63;;;;;;;27.87;40.28;98923.00;5054318;28;20053;-79
2021/07/23 10:34:31;;;;;;;11.55;7.63;;;;;;;27.97;39.86;98919.25;5067553;28;20045;-79
2021/07/23 10:36:58;;;;;;;10.93;6.65;;;;;;;28.21;41.68;98921.03;5050646;28;20493;-79
2021/07/23 10:39:25;;;;;;;11.70;6.70;;;;;;;28.14;39.61;98901.88;5065431;28;20134;-79
2021/07/23 10:42:25;;;;;;;10.18;7.05;;;;;;;27.96;40.60;98914.78;5055044;28;20045;-79
2021/07/23 10:44:56;;;;;;;14.07;7.35;;;;;;;28.02;40.82;98901.56;5050152;28;20080;-79
2021/07/23 10:47:40;;;;;;;9.02;6.90;;;;;;;28.14;40.67;98895.44;5054811;28;20045;-79
2021/07/23 10:50:13;;;;;;;12.65;6.90;;;;;;;28.28;40.49;98913.06;5058855;28;20041;-79
2021/07/23 10:52:40;;;;;;;12.57;7.70;;;;;;;28.05;39.71;98907.34;5067452;28;20041;-79
2021/07/23 10:55:20;;;;;;;15.30;6.90;;;;;;;28.29;39.41;98908.31;5063555;28;20048;-79
2021/07/23 10:58:39;;;;;;;11.65;7.15;;;;;;;28.34;39.06;98902.63;5061437;28;20099;-79
2021/07/23 11:01:10;;;;;;;8.93;6.35;;;;;;;28.58;40.67;98896.84;4982930;28;20482;-79
2021/07/23 11:04:01;;;;;;;11.90;7.00;;;;;;;28.43;38.23;98898.78;4972569;28;20054;-78
2021/07/23 11:06:38;;;;;;;16.10;6.45;;;;;;;28.46;37.68;98891.75;5022884;28;20060;-78
2021/07/23 11:09:07;;;;;;;12.25;6.68;;;;;;;28.46;39.75;98880.56;5072730;28;20049;-78
2021/07/23 11:11:34;;;;;;;8.75;6.72;;;;;;;28.71;38.48;98884.84;5069764;28;20049;-78
2021/07/23 11:14:14;;;;;;;15.60;7.35;;;;;;;28.83;36.21;98883.47;5068183;28;20048;-78
2021/07/23 11:16:43;;;;;;;12.57;6.78;;;;;;;28.83;39.17;98873.13;5063704;28;20063;-78
2021/07/23 11:19:17;;;;;;;15.85;6.60;;;;;;;28.83;38.90;98864.75;5068569;28;20102;-78
2021/07/23 11:21:44;;;;;;;11.25;6.85;;;;;;;28.93;37.91;98880.47;5062002;28;20045;-78
2021/07/23 11:24:13;;;;;;;20.60;6.97;;;;;;;29.19;35.75;98880.72;5055467;28;20057;-78
2021/07/23 11:26:49;;;;;;;12.70;6.80;;;;;;;29.04;36.45;98875.47;5060247;28;20480;-78
2021/07/23 11:29:29;;;;;;;10.48;6.93;;;;;;;29.02;38.30;98856.19;5070520;28;20450;-78
2021/07/23 11:32:04;;;;;;;12.27;6.95;;;;;;;29.04;36.27;98869.88;5058701;28;20113;-78
2021/07/23 11:34:36;;;;;;;10.07;7.13;;;;;;;28.80;36.44;98862.56;5059044;28;20048;-79
2021/07/23 11:37:13;;;;;;;11.10;6.57;;;;;;;28.89;37.56;98851.44;5056219;28;20096;-80
2021/07/23 11:39:50;;;;;;;18.65;6.80;;;;;;;29.07;38.92;98849.66;5065884;28;20041;-79